Time;durP1;ratioP1;P1;durP2;ratioP2;P2;SDS_P1;SDS_P2;PMS_P1;PMS_P2;Temp;Humidity;BMP_temperature;BMP_pressure;BME280_temperature;BME280_humidity;BME280_pressure;Samples;Min_cycle;Max_cycle;Signal;HPM_P1;HPM_P2
2023/08/16 00:01:58;;;;;;;29.00;27.30;;;25.50;99.90;;;;;;5064228;28;20512;-47
2023/08/16 00:04:25;;;;;;;31.10;29.60;;;25.50;99.90;;;;;;5064762;28;20740;-47
2023/08/16 00:06:52;;;;;;;31.10;29.33;;;25.50;99.90;;;;;;5061989;28;20498;-47
2023/08/16 00:09:20;;;;;;;30.20;28.93;;;25.40;99.90;;;;;;5060880;28;20476;-46
2023/08/16 00:11:47;;;;;;;30.20;28.90;;;25.40;99.90;;;;;;5062245;28;20492;-47
2023/08/16 00:14:14;;;;;;;30.60;29.40;;;25.50;99.90;;;;;;5064407;28;20501;-47
2023/08/16 00:16:42;;;;;;;30.17;28.63;;;25.40;99.90;;;;;;5063502;28;20490;-47
2023/08/16 00:19:09;;;;;;;30.70;29.40;;;25.40;99.90;;;;;;5060467;28;20514;-46
2023/08/16 00:21:36;;;;;;;31.93;30.53;;;25.40;99.90;;;;;;5060533;28;20471;-49
2023/08/16 00:24:05;;;;;;;30.47;29.27;;;25.40;99.90;;;;;;5064173;28;20471;-47
2023/08/16 00:26:32;;;;;;;30.97;29.67;;;25.40;99.90;;;;;;5064151;28;20447;-47
2023/08/16 00:28:59;;;;;;;29.93;28.53;;;25.40;99.90;;;;;;5060505;28;20916;-47
2023/08/16 00:31:25;;;;;;;29.03;27.93;;;25.40;99.90;;;;;;5059609;28;20476;-54
2023/08/16 00:33:54;;;;;;;28.53;27.43;;;25.30;99.90;;;;;;5067484;28;20483;-47
2023/08/16 00:36:21;;;;;;;29.90;28.60;;;25.40;99.90;;;;;;5060416;28;20690;-47
2023/08/16 00:38:47;;;;;;;30.17;28.53;;;25.30;99.90;;;;;;5066383;28;20891;-50
2023/08/16 00:41:14;;;;;;;31.57;30.27;;;25.30;99.90;;;;;;5060407;28;20514;-47
2023/08/16 00:43:41;;;;;;;30.20;28.90;;;25.30;99.90;;;;;;5059966;28;20478;-48
2023/08/16 00:46:12;;;;;;;32.53;31.20;;;25.30;99.90;;;;;;5060329;28;20490;-48
2023/08/16 00:48:42;;;;;;;30.43;29.13;;;25.30;99.90;;;;;;5061093;28;20456;-49
2023/08/16 00:51:11;;;;;;;27.80;26.60;;;25.30;99.90;;;;;;5065280;28;20496;-48
2023/08/16 00:53:40;;;;;;;30.27;29.07;;;25.30;99.90;;;;;;5060206;28;20575;-50
2023/08/16 00:56:07;;;;;;;30.30;29.10;;;25.30;99.90;;;;;;5063468;28;20466;-47
2023/08/16 00:58:34;;;;;;;29.70;28.50;;;25.30;99.90;;;;;;5063106;28;20558;-50
2023/08/16 01:01:01;;;;;;;29.50;28.40;;;25.20;99.90;;;;;;5059883;28;20492;-47
2023/08/16 01:03:28;;;;;;;31.20;29.80;;;25.30;99.90;;;;;;5059844;28;20931;-47
2023/08/16 01:05:55;;;;;;;30.10;28.80;;;25.20;99.90;;;;;;5062306;28;21002;-47
2023/08/16 01:08:23;;;;;;;29.27;27.97;;;25.20;99.90;;;;;;5063178;28;20486;-47
2023/08/16 01:10:58;;;;;;;30.00;28.70;;;25.20;99.90;;;;;;5054556;28;20500;-49
2023/08/16 01:13:29;;;;;;;31.87;30.47;;;25.20;99.90;;;;;;5063147;28;20859;-47
2023/08/16 01:15:59;;;;;;;30.63;29.33;;;25.20;99.90;;;;;;5055499;28;20518;-47
2023/08/16 01:18:28;;;;;;;30.83;29.53;;;25.20;99.90;;;;;;5063466;28;20692;-48
2023/08/16 01:20:56;;;;;;;29.17;27.97;;;25.20;99.90;;;;;;5060709;28;20487;-49
2023/08/16 01:23:35;;;;;;;31.33;29.93;;;25.20;99.90;;;;;;5059475;28;20811;-48
2023/08/16 01:26:11;;;;;;;31.00;29.70;;;25.20;99.90;;;;;;5062698;28;20490;-49
2023/08/16 01:28:40;;;;;;;30.27;28.77;;;25.20;99.90;;;;;;5063114;28;20908;-47
2023/08/16 01:31:07;;;;;;;28.70;27.60;;;25.20;99.90;;;;;;5051988;28;20490;-47
2023/08/16 01:33:34;;;;;;;31.80;30.50;;;25.20;99.90;;;;;;5059676;28;20446;-48
2023/08/16 01:36:01;;;;;;;30.87;29.53;;;25.20;99.90;;;;;;5062500;28;20471;-50
2023/08/16 01:38:29;;;;;;;30.97;29.60;;;25.10;99.90;;;;;;5062897;28;20453;-49
2023/08/16 01:41:02;;;;;;;33.03;31.70;;;25.10;99.90;;;;;;5060330;28;20506;-47
2023/08/16 01:43:31;;;;;;;31.20;30.00;;;25.10;99.90;;;;;;5059210;28;20444;-50
2023/08/16 01:46:01;;;;;;;31.70;30.30;;;25.10;99.90;;;;;;5061908;28;20479;-48
2023/08/16 01:48:29;;;;;;;32.87;31.50;;;25.10;99.90;;;;;;5062729;28;20495;-48
2023/08/16 01:50:56;;;;;;;31.80;30.40;;;25.10;99.90;;;;;;5060294;28;20902;-51
2023/08/16 01:53:23;;;;;;;29.47;28.27;;;25.10;99.90;;;;;;5059091;28;20480;-47
2023/08/16 01:55:50;;;;;;;31.60;30.03;;;25.10;99.90;;;;;;5060671;28;20943;-48
2023/08/16 01:58:17;;;;;;;32.73;31.50;;;25.10;99.90;;;;;;5062899;28;20475;-47
2023/08/16 02:00:44;;;;;;;29.50;27.90;;;25.10;99.90;;;;;;5061926;28;20559;-47
2023/08/16 02:03:12;;;;;;;28.67;27.57;;;25.00;99.90;;;;;;5058915;28;20951;-50
2023/08/16 02:05:40;;;;;;;31.40;30.07;;;25.00;99.90;;;;;;5059393;28;20590;-49
2023/08/16 02:08:07;;;;;;;32.63;31.33;;;25.00;99.90;;;;;;5051432;28;20448;-47
2023/08/16 02:10:33;;;;;;;32.13;30.93;;;25.00;99.90;;;;;;5059098;28;20503;-49
2023/08/16 02:13:00;;;;;;;32.10;30.60;;;25.00;99.90;;;;;;5062252;28;20467;-47
2023/08/16 02:15:27;;;;;;;31.50;30.10;;;25.00;99.90;;;;;;5064213;28;20487;-49
2023/08/16 02:17:54;;;;;;;30.50;29.20;;;25.00;99.90;;;;;;5064889;28;20530;-48
2023/08/16 02:20:22;;;;;;;30.37;28.70;;;25.00;99.90;;;;;;5066326;28;20566;-47
2023/08/16 02:22:49;;;;;;;34.83;33.37;;;25.00;99.90;;;;;;5065193;28;20526;-48
2023/08/16 02:25:16;;;;;;;31.87;30.13;;;25.00;99.90;;;;;;5062880;28;20459;-48
2023/08/16 02:27:43;;;;;;;29.40;28.10;;;25.00;99.90;;;;;;5063249;28;20940;-47
2023/08/16 02:30:10;;;;;;;28.67;27.53;;;25.00;99.90;;;;;;5066203;28;20974;-48
2023/08/16 02:32:37;;;;;;;30.07;28.77;;;24.90;99.90;;;;;;5066152;28;20481;-48
2023/08/16 02:35:05;;;;;;;28.30;27.10;;;25.00;99.90;;;;;;5062713;28;20475;-47
2023/08/16 02:37:33;;;;;;;30.93;29.73;;;25.00;99.90;;;;;;5062834;28;20869;-47
2023/08/16 02:40:00;;;;;;;31.57;30.27;;;24.90;99.90;;;;;;5065129;28;20563;-47
2023/08/16 02:42:27;;;;;;;27.93;26.73;;;24.90;99.90;;;;;;5065904;28;20482;-47
2023/08/16 02:44:53;;;;;;;28.50;27.40;;;25.00;99.90;;;;;;5064105;28;20486;-47
2023/08/16 02:47:20;;;;;;;27.77;26.57;;;25.00;99.90;;;;;;5062830;28;20476;-47
2023/08/16 02:49:47;;;;;;;29.07;27.73;;;24.90;99.90;;;;;;5063406;28;20471;-47
2023/08/16 02:52:14;;;;;;;29.63;28.53;;;24.90;99.90;;;;;;5065495;28;20528;-46
2023/08/16 02:54:42;;;;;;;30.80;29.50;;;24.90;99.90;;;;;;5065911;28;20471;-47
2023/08/16 02:57:09;;;;;;;29.87;28.47;;;24.90;99.90;;;;;;5054650;28;20444;-47
2023/08/16 02:59:41;;;;;;;34.73;33.03;;;24.90;99.90;;;;;;5062428;28;20516;-50
2023/08/16 03:02:08;;;;;;;28.40;27.30;;;24.90;99.90;;;;;;5053656;28;20468;-47
2023/08/16 03:04:38;;;;;;;28.90;27.70;;;24.90;99.90;;;;;;5068776;28;20455;-49
2023/08/16 03:07:06;;;;;;;30.60;29.20;;;24.90;99.90;;;;;;5062342;28;20444;-47
2023/08/16 03:09:32;;;;;;;30.53;29.23;;;24.90;99.90;;;;;;5062247;28;20481;-47
2023/08/16 03:12:01;;;;;;;32.20;30.80;;;24.90;99.90;;;;;;5061958;28;20495;-47
2023/08/16 03:14:28;;;;;;;32.03;30.73;;;24.80;99.90;;;;;;5067795;28;20978;-47
2023/08/16 03:16:55;;;;;;;30.93;29.67;;;24.80;99.90;;;;;;5063638;28;20444;-47
2023/08/16 03:19:22;;;;;;;30.77;29.57;;;24.90;99.90;;;;;;5062134;28;20507;-47
2023/08/16 03:21:49;;;;;;;29.07;27.93;;;24.90;99.90;;;;;;5061573;28;20504;-47
2023/08/16 03:24:16;;;;;;;31.60;30.17;;;24.80;99.90;;;;;;5061306;28;20467;-47
2023/08/16 03:26:43;;;;;;;32.73;31.33;;;24.80;99.90;;;;;;5061191;28;20484;-47
2023/08/16 03:29:11;;;;;;;36.27;34.57;;;24.80;99.90;;;;;;5065232;28;20475;-48
2023/08/16 03:31:38;;;;;;;30.87;29.77;;;24.80;99.90;;;;;;5065064;28;20506;-47
2023/08/16 03:34:06;;;;;;;31.93;30.53;;;24.80;99.90;;;;;;5061750;28;20456;-48
2023/08/16 03:36:33;;;;;;;30.80;29.50;;;24.80;99.90;;;;;;5061812;28;20482;-47
2023/08/16 03:39:00;;;;;;;31.93;30.43;;;24.80;99.90;;;;;;5064094;28;20479;-47
2023/08/16 03:41:27;;;;;;;32.20;30.70;;;24.80;99.90;;;;;;5064965;28;20511;-48
2023/08/16 03:43:54;;;;;;;40.20;38.60;;;24.80;99.90;;;;;;5063183;28;20486;-49
2023/08/16 03:46:24;;;;;;;39.17;37.57;;;24.80;99.90;;;;;;5060837;28;20505;-51
2023/08/16 03:48:51;;;;;;;39.93;38.03;;;24.90;99.90;;;;;;5062779;28;20484;-52
2023/08/16 03:51:19;;;;;;;41.30;39.50;;;24.90;99.90;;;;;;5063501;28;20462;-52
2023/08/16 03:53:55;;;;;;;41.80;40.10;;;24.90;99.90;;;;;;5064111;28;20447;-46
2023/08/16 03:56:33;;;;;;;41.17;39.57;;;25.00;99.90;;;;;;5061548;28;20440;-46
2023/08/16 03:59:00;;;;;;;37.70;35.90;;;25.10;99.90;;;;;;5063278;28;20518;-46
2023/08/16 04:01:29;;;;;;;43.17;41.23;;;25.20;99.90;;;;;;5064113;28;20514;-49
2023/08/16 04:03:56;;;;;;;42.93;40.73;;;25.30;99.90;;;;;;5064081;28;20971;-50
2023/08/16 04:06:22;;;;;;;42.17;40.17;;;25.40;99.90;;;;;;5064754;28;20470;-46
2023/08/16 04:08:49;;;;;;;45.17;42.80;;;25.60;99.90;;;;;;5063622;28;20443;-46
2023/08/16 04:11:16;;;;;;;46.23;43.93;;;25.70;99.90;;;;;;5061220;28;21020;-46
2023/08/16 04:13:43;;;;;;;46.43;44.23;;;25.80;99.90;;;;;;5064144;28;20540;-46
2023/08/16 04:16:11;;;;;;;42.60;40.20;;;26.00;99.90;;;;;;5064276;28;20481;-50
2023/08/16 04:18:39;;;;;;;45.17;42.87;;;26.10;99.90;;;;;;5064237;28;20842;-47
2023/08/16 04:21:06;;;;;;;44.37;42.00;;;26.30;99.90;;;;;;5060136;28;20514;-47
2023/08/16 04:23:33;;;;;;;45.07;43.17;;;26.40;99.90;;;;;;5064158;28;20523;-48
2023/08/16 04:26:01;;;;;;;40.00;38.37;;;26.40;99.90;;;;;;5062132;28;20923;-48
2023/08/16 04:28:28;;;;;;;36.60;34.93;;;26.60;99.90;;;;;;5060629;28;21020;-46
2023/08/16 04:30:55;;;;;;;37.80;36.07;;;26.60;99.90;;;;;;5061725;28;20492;-47
2023/08/16 04:33:22;;;;;;;38.50;36.90;;;26.70;99.90;;;;;;5063992;28;20470;-46
2023/08/16 04:35:50;;;;;;;38.40;36.77;;;26.70;99.90;;;;;;5063316;28;20521;-47
2023/08/16 04:38:17;;;;;;;38.43;36.70;;;26.70;99.90;;;;;;5060507;28;20482;-47
2023/08/16 04:40:43;;;;;;;37.90;36.17;;;26.70;99.90;;;;;;5060410;28;20563;-47
2023/08/16 04:43:10;;;;;;;39.40;37.80;;;26.70;99.90;;;;;;5063554;28;20471;-47
2023/08/16 04:45:37;;;;;;;35.33;33.93;;;26.70;99.90;;;;;;5063907;28;20471;-47
2023/08/16 04:48:05;;;;;;;37.63;36.13;;;26.60;99.90;;;;;;5061158;28;20466;-46
2023/08/16 04:50:32;;;;;;;40.03;38.53;;;26.50;99.90;;;;;;5060124;28;20793;-46
2023/08/16 04:53:00;;;;;;;36.50;34.90;;;26.40;99.90;;;;;;5061747;28;20436;-47
2023/08/16 04:55:27;;;;;;;38.80;37.40;;;26.40;99.90;;;;;;5063692;28;20481;-46
2023/08/16 04:57:54;;;;;;;36.83;35.37;;;26.30;99.90;;;;;;5062424;28;20484;-46
2023/08/16 05:00:21;;;;;;;36.80;34.93;;;26.20;99.90;;;;;;5059865;28;20567;-47
2023/08/16 05:02:48;;;;;;;35.17;33.77;;;26.10;99.90;;;;;;5060203;28;20479;-46
2023/08/16 05:05:15;;;;;;;37.57;36.20;;;26.00;99.90;;;;;;5063381;28;20469;-46
2023/08/16 05:07:42;;;;;;;35.27;33.87;;;26.00;99.90;;;;;;5063441;28;20467;-46
2023/08/16 05:10:10;;;;;;;32.50;31.10;;;25.90;99.90;;;;;;5060734;28;20543;-47
2023/08/16 05:12:37;;;;;;;34.37;32.97;;;25.90;99.90;;;;;;5060074;28;20436;-47
2023/08/16 05:15:07;;;;;;;35.00;33.50;;;25.80;99.90;;;;;;5062421;28;20510;-47
2023/08/16 05:17:33;;;;;;;36.03;34.53;;;25.70;99.90;;;;;;5063219;28;20463;-47
2023/08/16 05:20:00;;;;;;;35.83;34.20;;;25.70;99.90;;;;;;5061135;28;20917;-48
2023/08/16 05:22:27;;;;;;;35.50;33.80;;;25.60;99.90;;;;;;5059534;28;21019;-47
2023/08/16 05:24:54;;;;;;;38.50;36.53;;;25.60;99.90;;;;;;5060646;28;20886;-47
2023/08/16 05:27:22;;;;;;;38.87;36.93;;;25.50;99.90;;;;;;5063018;28;20438;-47
2023/08/16 05:29:49;;;;;;;35.37;33.97;;;25.50;99.90;;;;;;5062789;28;20470;-49
2023/08/16 05:32:16;;;;;;;35.33;33.83;;;25.50;99.90;;;;;;5059350;28;20994;-49
2023/08/16 05:34:43;;;;;;;36.10;34.67;;;25.40;99.90;;;;;;5059760;28;20444;-49
2023/08/16 05:37:10;;;;;;;37.03;35.53;;;25.40;99.90;;;;;;5062455;28;20467;-47
2023/08/16 05:39:37;;;;;;;40.07;38.37;;;25.40;99.90;;;;;;5062999;28;20873;-47
2023/08/16 05:42:05;;;;;;;36.60;34.97;;;25.30;99.90;;;;;;5060207;28;20953;-48
2023/08/16 05:44:33;;;;;;;39.47;37.87;;;25.30;99.90;;;;;;5059330;28;20468;-49
2023/08/16 05:47:00;;;;;;;38.00;36.30;;;25.30;99.90;;;;;;5061033;28;20475;-49
2023/08/16 05:49:27;;;;;;;37.27;35.77;;;25.20;99.90;;;;;;5062154;28;20467;-50
2023/08/16 05:51:54;;;;;;;39.17;37.57;;;25.30;99.90;;;;;;5061674;28;20479;-48
2023/08/16 05:54:21;;;;;;;36.17;34.67;;;25.20;99.90;;;;;;5059580;28;20483;-49
2023/08/16 05:56:47;;;;;;;33.43;32.03;;;25.20;99.90;;;;;;5059409;28;20468;-50
2023/08/16 05:59:14;;;;;;;39.23;37.23;;;25.20;99.90;;;;;;5059292;28;20468;-49
2023/08/16 06:01:42;;;;;;;38.73;37.10;;;25.20;99.90;;;;;;5059041;28;20511;-49
2023/08/16 06:04:09;;;;;;;40.70;39.10;;;25.10;99.90;;;;;;5062042;28;20498;-53
2023/08/16 06:06:36;;;;;;;40.27;38.13;;;25.20;99.90;;;;;;5062726;28;20466;-49
2023/08/16 06:09:04;;;;;;;40.67;39.07;;;25.10;99.90;;;;;;5060765;28;20467;-49
2023/08/16 06:11:30;;;;;;;39.20;37.70;;;25.10;99.90;;;;;;5059018;28;20459;-50
2023/08/16 06:13:58;;;;;;;38.03;36.60;;;25.10;99.90;;;;;;5060348;28;20514;-48
2023/08/16 06:16:25;;;;;;;41.70;39.97;;;25.10;99.90;;;;;;5062833;28;20484;-49
2023/08/16 06:18:53;;;;;;;40.23;38.53;;;25.10;99.90;;;;;;5062377;28;20467;-47
2023/08/16 06:21:20;;;;;;;40.37;38.77;;;25.10;99.90;;;;;;5059103;28;20526;-49
2023/08/16 06:23:47;;;;;;;41.47;39.50;;;25.00;99.90;;;;;;5058940;28;20475;-47
2023/08/16 06:26:14;;;;;;;39.67;38.07;;;25.00;99.90;;;;;;5062413;28;20554;-47
2023/08/16 06:28:41;;;;;;;35.37;33.97;;;25.00;99.90;;;;;;5062549;28;20497;-49
2023/08/16 06:31:08;;;;;;;38.00;36.50;;;25.00;99.90;;;;;;5059762;28;20470;-47
2023/08/16 06:33:37;;;;;;;37.80;36.13;;;25.00;99.90;;;;;;5058780;28;20471;-47
2023/08/16 06:36:05;;;;;;;38.10;36.23;;;25.00;99.90;;;;;;5060740;28;20451;-48
2023/08/16 06:38:33;;;;;;;37.17;35.30;;;25.00;99.90;;;;;;5062314;28;20474;-49
2023/08/16 06:40:59;;;;;;;38.97;37.37;;;24.90;99.90;;;;;;5060918;28;20826;-48
2023/08/16 06:43:26;;;;;;;38.30;36.70;;;24.90;99.90;;;;;;5058783;28;20464;-47
2023/08/16 06:45:53;;;;;;;39.80;37.90;;;24.90;99.90;;;;;;5059282;28;20468;-49
2023/08/16 06:48:20;;;;;;;39.13;37.60;;;25.00;99.90;;;;;;5062385;28;20474;-49
2023/08/16 06:50:47;;;;;;;40.23;38.53;;;24.90;99.90;;;;;;5062305;28;20459;-47
2023/08/16 06:53:15;;;;;;;36.27;34.63;;;24.90;99.90;;;;;;5058742;28;20471;-47
2023/08/16 06:55:42;;;;;;;35.90;34.40;;;24.90;99.90;;;;;;5058692;28;20432;-49
2023/08/16 06:58:10;;;;;;;39.80;38.20;;;24.90;99.90;;;;;;5061257;28;20474;-47
2023/08/16 07:00:37;;;;;;;35.87;34.43;;;24.90;99.90;;;;;;5064714;28;20483;-48
2023/08/16 07:03:04;;;;;;;36.43;35.00;;;24.90;99.90;;;;;;5063907;28;20431;-48
2023/08/16 07:05:31;;;;;;;35.40;34.00;;;24.90;99.90;;;;;;5062252;28;20475;-48
2023/08/16 07:07:58;;;;;;;36.07;34.57;;;24.90;99.90;;;;;;5063104;28;20429;-49
2023/08/16 07:10:26;;;;;;;39.60;38.00;;;24.90;99.90;;;;;;5065498;28;20571;-47
2023/08/16 07:12:53;;;;;;;38.70;36.87;;;24.90;99.90;;;;;;5065021;28;20496;-49
2023/08/16 07:15:20;;;;;;;38.10;36.50;;;24.90;99.90;;;;;;5062091;28;20447;-49
2023/08/16 07:17:47;;;;;;;37.20;35.70;;;24.90;99.90;;;;;;5062209;28;20474;-48
2023/08/16 07:20:14;;;;;;;37.43;35.93;;;24.90;99.90;;;;;;5064789;28;20550;-49
2023/08/16 07:22:41;;;;;;;39.07;37.47;;;24.90;99.90;;;;;;5065318;28;20494;-47
2023/08/16 07:25:09;;;;;;;39.07;37.37;;;24.90;99.90;;;;;;5063063;28;20456;-48
2023/08/16 07:27:39;;;;;;;37.33;35.93;;;24.90;99.90;;;;;;5062101;28;20520;-49
2023/08/16 07:30:07;;;;;;;38.80;37.10;;;24.90;99.90;;;;;;5063504;28;20441;-48
2023/08/16 07:32:34;;;;;;;37.73;36.27;;;24.90;99.90;;;;;;5065114;28;20490;-49
2023/08/16 07:35:01;;;;;;;38.93;37.43;;;24.90;99.90;;;;;;5064000;28;20808;-49
2023/08/16 07:37:31;;;;;;;39.77;38.07;;;24.90;99.90;;;;;;5061745;28;20834;-47
2023/08/16 07:39:58;;;;;;;38.80;37.30;;;24.90;99.90;;;;;;5062358;28;20523;-48
2023/08/16 07:42:25;;;;;;;40.43;38.63;;;24.90;99.90;;;;;;5064684;28;20558;-49
2023/08/16 07:44:53;;;;;;;39.20;37.60;;;24.90;99.90;;;;;;5065000;28;20467;-49
2023/08/16 07:47:20;;;;;;;36.43;34.93;;;24.90;99.90;;;;;;5053676;28;20444;-49
2023/08/16 07:49:47;;;;;;;38.97;37.27;;;24.90;99.90;;;;;;5061466;28;20464;-49
2023/08/16 07:52:14;;;;;;;37.90;36.40;;;24.90;99.90;;;;;;5064039;28;20487;-47
2023/08/16 07:54:41;;;;;;;39.00;37.30;;;24.90;99.90;;;;;;5064747;28;20490;-47
2023/08/16 07:57:08;;;;;;;35.13;33.73;;;24.90;99.90;;;;;;5062836;28;20471;-46
2023/08/16 07:59:36;;;;;;;37.00;35.50;;;24.90;99.90;;;;;;5061276;28;20474;-49
2023/08/16 08:02:06;;;;;;;41.57;39.47;;;24.90;99.90;;;;;;5062216;28;20490;-48
2023/08/16 08:04:33;;;;;;;38.40;36.80;;;24.90;99.90;;;;;;5064640;28;20443;-47
2023/08/16 08:07:00;;;;;;;39.53;37.93;;;24.90;99.90;;;;;;5063708;28;20489;-47
2023/08/16 08:09:27;;;;;;;42.27;40.47;;;24.90;99.90;;;;;;5061090;28;20472;-47
2023/08/16 08:11:53;;;;;;;41.07;39.27;;;24.90;99.90;;;;;;5059988;28;20466;-49
2023/08/16 08:14:20;;;;;;;39.13;37.20;;;24.90;99.90;;;;;;5052935;28;20468;-47
2023/08/16 08:16:47;;;;;;;40.83;38.97;;;24.90;99.90;;;;;;5061041;28;20483;-49
2023/08/16 08:19:16;;;;;;;41.07;38.80;;;24.90;99.90;;;;;;5063590;28;20787;-47
2023/08/16 08:21:44;;;;;;;37.70;36.10;;;24.90;99.90;;;;;;5063999;28;20502;-47
2023/08/16 08:24:11;;;;;;;38.90;37.20;;;24.90;99.90;;;;;;5061861;28;20816;-47
2023/08/16 08:26:38;;;;;;;37.97;36.27;;;24.90;99.90;;;;;;5060702;28;20844;-52
2023/08/16 08:29:05;;;;;;;41.50;39.60;;;24.90;99.90;;;;;;5062082;28;20872;-48
2023/08/16 08:31:32;;;;;;;45.50;43.40;;;24.90;99.90;;;;;;5063889;28;20974;-51
2023/08/16 08:33:59;;;;;;;39.00;37.30;;;24.90;99.90;;;;;;5063495;28;20439;-47
2023/08/16 08:36:27;;;;;;;39.57;37.53;;;24.90;99.90;;;;;;5060827;28;20475;-50
2023/08/16 08:38:54;;;;;;;43.57;41.57;;;24.90;99.90;;;;;;5060349;28;20445;-48
2023/08/16 08:41:23;;;;;;;46.53;44.37;;;24.90;99.90;;;;;;5052178;28;20511;-48
2023/08/16 08:43:51;;;;;;;41.03;39.23;;;24.90;99.90;;;;;;5060298;28;20531;-48
2023/08/16 08:46:20;;;;;;;42.37;40.33;;;24.90;99.90;;;;;;5063323;28;20445;-47
2023/08/16 08:48:48;;;;;;;44.07;42.07;;;24.90;99.90;;;;;;5063749;28;20927;-47
2023/08/16 08:51:15;;;;;;;41.93;39.93;;;24.90;99.90;;;;;;5060964;28;20772;-48
2023/08/16 08:53:43;;;;;;;43.00;41.03;;;25.00;99.90;;;;;;5060054;28;20444;-49
2023/08/16 08:56:11;;;;;;;43.50;41.47;;;25.00;99.90;;;;;;5062187;28;20441;-49
2023/08/16 08:58:41;;;;;;;39.87;37.90;;;25.00;99.90;;;;;;5063461;28;20478;-49
2023/08/16 09:01:10;;;;;;;43.90;41.80;;;25.00;99.90;;;;;;5061692;28;20479;-49
2023/08/16 09:03:39;;;;;;;43.30;41.00;;;25.00;99.90;;;;;;5059930;28;20444;-49
2023/08/16 09:06:06;;;;;;;41.97;40.00;;;25.00;99.90;;;;;;5061333;28;20992;-47
2023/08/16 09:08:37;;;;;;;45.63;43.47;;;25.00;99.90;;;;;;5063227;28;20440;-49
2023/08/16 09:11:05;;;;;;;45.47;43.37;;;25.00;99.90;;;;;;5062108;28;20828;-49
2023/08/16 09:13:32;;;;;;;44.27;42.27;;;25.00;99.90;;;;;;5059930;28;20990;-47
2023/08/16 09:16:01;;;;;;;43.70;41.27;;;25.00;99.90;;;;;;5059991;28;20472;-48
2023/08/16 09:18:28;;;;;;;48.47;45.80;;;25.00;99.90;;;;;;5063189;28;20959;-48
2023/08/16 09:20:59;;;;;;;42.93;40.87;;;25.00;99.90;;;;;;5063136;28;20898;-48
2023/08/16 09:23:25;;;;;;;42.10;40.10;;;25.00;99.90;;;;;;5051778;28;20940;-48
2023/08/16 09:25:52;;;;;;;42.37;40.17;;;25.00;99.90;;;;;;5059786;28;20933;-49
2023/08/16 09:28:21;;;;;;;40.50;38.60;;;25.00;99.90;;;;;;5062489;28;20559;-47
2023/08/16 09:30:48;;;;;;;41.40;39.10;;;25.00;99.90;;;;;;5063055;28;20463;-47
2023/08/16 09:33:18;;;;;;;36.20;34.57;;;25.00;99.90;;;;;;5060450;28;20478;-48
2023/08/16 09:35:48;;;;;;;42.23;40.33;;;25.00;99.90;;;;;;5059440;28;20491;-48
2023/08/16 09:38:16;;;;;;;41.83;39.83;;;25.00;99.90;;;;;;5061943;28;20523;-49
2023/08/16 09:40:49;;;;;;;40.77;38.97;;;25.00;99.90;;;;;;5062816;28;20466;-49
2023/08/16 09:43:16;;;;;;;41.93;40.13;;;25.00;99.90;;;;;;5060006;28;20489;-47
2023/08/16 09:45:48;;;;;;;43.10;41.00;;;25.00;99.90;;;;;;5059303;28;20440;-49
2023/08/16 09:48:15;;;;;;;44.17;42.07;;;25.00;99.90;;;;;;5061800;28;20498;-49
2023/08/16 09:50:42;;;;;;;42.43;40.47;;;25.00;99.90;;;;;;5062677;28;20712;-49
2023/08/16 09:53:13;;;;;;;41.70;39.70;;;25.00;99.90;;;;;;5060932;28;20471;-47
2023/08/16 09:55:42;;;;;;;45.27;43.00;;;25.00;99.90;;;;;;5059329;28;20464;-49
2023/08/16 09:58:11;;;;;;;43.67;41.60;;;25.00;99.90;;;;;;5060715;28;20444;-47
2023/08/16 10:00:40;;;;;;;44.43;42.27;;;25.00;99.90;;;;;;5062602;28;20463;-51
2023/08/16 10:03:09;;;;;;;43.50;41.33;;;25.00;99.90;;;;;;5061175;28;20478;-47
2023/08/16 10:05:36;;;;;;;41.50;39.50;;;25.10;99.90;;;;;;5059214;28;20439;-47
2023/08/16 10:08:05;;;;;;;42.53;40.33;;;25.10;99.90;;;;;;5059837;28;20468;-49
2023/08/16 10:10:32;;;;;;;40.00;38.00;;;25.10;99.90;;;;;;5062512;28;20479;-48
2023/08/16 10:13:00;;;;;;;40.50;38.70;;;25.00;99.90;;;;;;5062239;28;20512;-47
2023/08/16 10:15:29;;;;;;;42.50;40.20;;;25.10;99.90;;;;;;5059075;28;20432;-47
2023/08/16 10:17:57;;;;;;;41.70;39.70;;;25.00;99.90;;;;;;5059120;28;20958;-49
2023/08/16 10:20:27;;;;;;;42.67;40.57;;;25.10;99.90;;;;;;5062677;28;21171;-48
2023/08/16 10:22:59;;;;;;;43.30;41.10;;;25.00;99.90;;;;;;5062183;28;20507;-49
2023/08/16 10:25:31;;;;;;;43.10;40.90;;;25.10;99.90;;;;;;5051245;28;20474;-51
2023/08/16 10:28:01;;;;;;;43.00;40.90;;;25.00;99.90;;;;;;5059120;28;20468;-48
2023/08/16 10:30:29;;;;;;;37.57;35.77;;;25.00;99.90;;;;;;5051075;28;20987;-49
2023/08/16 10:32:59;;;;;;;41.47;39.33;;;25.10;99.90;;;;;;5058691;28;20456;-49
2023/08/16 10:35:28;;;;;;;40.70;38.50;;;25.10;99.90;;;;;;5053485;28;20463;-52
2023/08/16 10:37:57;;;;;;;41.70;39.50;;;25.10;99.90;;;;;;5063022;28;20468;-50
2023/08/16 10:40:25;;;;;;;42.13;40.00;;;25.10;99.90;;;;;;5065768;28;20451;-47
2023/08/16 10:42:56;;;;;;;43.23;40.83;;;25.10;99.90;;;;;;5065884;28;20479;-47
2023/08/16 10:45:24;;;;;;;44.00;41.83;;;25.10;99.90;;;;;;5062858;28;20982;-50
2023/08/16 10:47:52;;;;;;;41.73;39.83;;;25.00;99.90;;;;;;5062547;28;20440;-54
2023/08/16 10:50:19;;;;;;;42.03;40.00;;;25.10;99.90;;;;;;5064821;28;20491;-49
2023/08/16 10:52:47;;;;;;;43.90;41.60;;;25.10;99.90;;;;;;5065618;28;20435;-51
2023/08/16 10:55:14;;;;;;;43.23;41.13;;;25.10;99.90;;;;;;5063923;28;20945;-48
2023/08/16 10:57:52;;;;;;;42.00;40.07;;;25.10;99.90;;;;;;5062627;28;20527;-50
2023/08/16 11:00:20;;;;;;;40.63;38.30;;;25.10;99.90;;;;;;5064722;28;20492;-49
2023/08/16 11:02:51;;;;;;;39.63;37.83;;;25.10;99.90;;;;;;5065372;28;20506;-49
2023/08/16 11:05:19;;;;;;;40.00;38.00;;;25.10;99.90;;;;;;5063332;28;20882;-49
2023/08/16 11:07:47;;;;;;;42.43;40.53;;;25.10;99.90;;;;;;5062176;28;20466;-51
2023/08/16 11:10:15;;;;;;;41.20;39.20;;;25.10;99.90;;;;;;5063710;28;20499;-47
2023/08/16 11:12:41;;;;;;;41.90;40.00;;;25.10;99.90;;;;;;5065680;28;20758;-46
2023/08/16 11:15:10;;;;;;;43.07;41.07;;;25.10;99.90;;;;;;5064388;28;20992;-47
2023/08/16 11:17:42;;;;;;;41.67;39.57;;;25.10;99.90;;;;;;5062023;28;20475;-46
2023/08/16 11:20:15;;;;;;;42.67;40.47;;;25.10;99.90;;;;;;5062735;28;20452;-45
2023/08/16 11:22:42;;;;;;;40.13;38.13;;;25.10;99.90;;;;;;5065190;28;20607;-48
2023/08/16 11:25:11;;;;;;;41.50;39.60;;;25.10;99.90;;;;;;5064112;28;20943;-46
2023/08/16 11:27:38;;;;;;;42.23;40.33;;;25.10;99.90;;;;;;5061983;28;20437;-48
2023/08/16 11:30:08;;;;;;;40.20;38.30;;;25.20;99.90;;;;;;5061913;28;20455;-50
2023/08/16 11:32:37;;;;;;;41.97;39.97;;;25.10;99.90;;;;;;5064996;28;20815;-46
2023/08/16 11:35:08;;;;;;;44.77;42.47;;;25.10;99.90;;;;;;5064804;28;20960;-46
2023/08/16 11:37:35;;;;;;;43.53;41.47;;;25.10;99.90;;;;;;5061705;28;20440;-49
2023/08/16 11:40:04;;;;;;;45.60;43.30;;;25.10;99.90;;;;;;5061602;28;20463;-46
2023/08/16 11:42:32;;;;;;;44.63;42.30;;;25.10;99.90;;;;;;5053562;28;20854;-46
2023/08/16 11:44:59;;;;;;;43.50;41.20;;;25.20;99.90;;;;;;5061300;28;20464;-46
2023/08/16 11:47:26;;;;;;;43.63;41.47;;;25.20;99.90;;;;;;5063570;28;20439;-46
2023/08/16 11:49:53;;;;;;;45.37;43.07;;;25.20;99.90;;;;;;5064796;28;20472;-46
2023/08/16 11:52:23;;;;;;;45.50;43.40;;;25.20;99.90;;;;;;5062312;28;20466;-46
2023/08/16 11:55:05;;;;;;;44.20;41.47;;;25.20;99.90;;;;;;5061386;28;20468;-46
2023/08/16 11:57:34;;;;;;;44.57;42.43;;;25.20;99.90;;;;;;5053696;28;20444;-46
2023/08/16 12:00:03;;;;;;;46.70;44.50;;;25.20;99.90;;;;;;5061024;28;20437;-49
2023/08/16 12:02:30;;;;;;;46.53;44.23;;;25.20;99.90;;;;;;5053116;28;20884;-47
2023/08/16 12:04:57;;;;;;;46.03;43.67;;;25.20;99.90;;;;;;5061271;28;20490;-46
2023/08/16 12:07:24;;;;;;;46.57;44.07;;;25.20;99.90;;;;;;5063995;28;20855;-46
2023/08/16 12:09:51;;;;;;;46.80;44.50;;;25.20;99.90;;;;;;5064320;28;20443;-47
2023/08/16 12:12:18;;;;;;;47.37;44.87;;;25.20;99.90;;;;;;5062221;28;20455;-46
2023/08/16 12:14:46;;;;;;;48.43;45.67;;;25.20;99.90;;;;;;5061207;28;20460;-49
2023/08/16 12:17:13;;;;;;;46.50;44.20;;;25.20;99.90;;;;;;5062113;28;20846;-47
2023/08/16 12:19:40;;;;;;;50.80;48.37;;;25.20;99.90;;;;;;5064372;28;20860;-47
2023/08/16 12:22:07;;;;;;;48.50;46.10;;;25.20;99.90;;;;;;5063364;28;21025;-48
2023/08/16 12:24:34;;;;;;;48.07;45.67;;;25.20;99.90;;;;;;5061052;28;20966;-48
2023/08/16 12:27:01;;;;;;;49.43;47.03;;;25.30;99.90;;;;;;5060955;28;20848;-46
2023/08/16 12:29:28;;;;;;;49.77;47.27;;;25.30;99.90;;;;;;5063723;28;20519;-48
2023/08/16 12:31:56;;;;;;;48.30;46.10;;;25.30;99.90;;;;;;5063887;28;20487;-48